Flight Track Log - Related Links

Times and Time Zones

All times are in EDT time to prevent confusion due to time zone crossing. See the SWA16 flight status page for this flight to view local times or setup timezone preferences in your user account.

Time Position Orientation Groundspeed Altitude Reporting Facility
EDT Latitude Longitude Course Direction KTS MPH feet Rate Location/Type
Mon 06:42:43 AM 40.6667 -74.1833 191° South 182 209 1,000  Level New York TRACON
Mon 06:43:43 AM 40.6000 -74.2000 191° South 231 266 3,200 2,300 Climbing New York TRACON
Mon 06:44:43 AM 40.5833 -74.2667 252° West 268 308 5,600 2,810 Climbing New York TRACON
Mon 06:45:49 AM 40.5833 -74.3667 270° West 266 306 9,100 2,810 Climbing New York TRACON
Mon 06:46:49 AM 40.5833 -74.4667 270° West 274 315 11,500 2,158 Climbing New York TRACON
Mon 06:47:43 AM 40.5833 -74.5500 270° West 294 338 13,200 1,974 Climbing New York TRACON
Mon 06:49:24 AM 40.6633 -74.6886 307° West 278 320 16,600 1,602 Climbing New York Center
Mon 06:50:24 AM 40.6297 -74.8153 251° West 301 346 17,500 800 Climbing New York Center
Mon 06:51:24 AM 40.5925 -74.9278 246° West 358 412 18,200 1,200 Climbing New York Center
Mon 06:52:24 AM 40.5464 -75.0561 245° Southwest 382 440 19,900 2,050 Climbing New York Center
Mon 06:53:24 AM 40.4778 -75.1639 230° Southwest 393 452 22,300 2,050 Climbing New York Center
Mon 06:54:24 AM 40.4092 -75.2683 229° Southwest 393 452 24,000 1,400 Climbing New York Center
Mon 06:55:24 AM 40.3425 -75.3758 231° Southwest 388 447 25,100 1,450 Climbing New York Center
Mon 06:56:24 AM 40.2736 -75.4856 231° Southwest 388 447 26,900 1,700 Climbing New York Center
Mon 06:57:24 AM 40.2089 -75.5897 231° Southwest 388 447 28,500 1,350 Climbing New York Center
Mon 06:58:24 AM 40.1453 -75.7183 237° Southwest 382 440 29,600 1,300 Climbing New York Center
Mon 06:59:24 AM 40.0906 -75.8286 237° Southwest 382 440 31,100 1,450 Climbing New York Center
Mon 07:00:24 AM 40.0400 -75.9333 238° Southwest 375 432 32,500 1,050 Climbing New York Center
Mon 07:01:24 AM 39.9836 -76.0347 234° Southwest 364 419 33,200 650 Climbing New York Center
Mon 07:02:24 AM 39.9328 -76.1419 238° Southwest 359 413 33,800 293 Climbing New York Center
Mon 07:04:08 AM 39.8447 -76.3078 235° Southwest 353 406 34,000 73 Climbing Washington Center
Mon 07:05:08 AM 39.7900 -76.4150 236° Southwest 353 406 34,000  Level Washington Center
Mon 07:06:06 AM 39.7308 -76.5222 234° Southwest 358 412 34,000  Level Washington Center
Mon 07:07:06 AM 39.6781 -76.6267 237° Southwest 358 412 34,000  Level Washington Center
Mon 07:08:07 AM 39.6250 -76.7311 237° Southwest 353 406 34,000  Level Washington Center
Mon 07:09:08 AM 39.5719 -76.8325 236° Southwest 353 406 34,000  Level Washington Center
Mon 07:10:06 AM 39.5164 -76.9392 236° Southwest 353 406 34,000 -51 Level Washington Center
Mon 07:11:06 AM 39.4489 -77.0294 226° Southwest 353 406 33,900  Descending Washington Center
Mon 07:12:07 AM 39.3728 -77.1083 219° Southwest 353 406 34,000 49 Climbing Washington Center
Mon 07:13:08 AM 39.2947 -77.1872 218° Southwest 358 412 34,000  Level Washington Center
Mon 07:14:06 AM 39.2206 -77.2686 220° Southwest 358 412 34,000  Level Washington Center
Mon 07:15:07 AM 39.1425 -77.3472 218° Southwest 358 412 34,000  Level Washington Center
Mon 07:16:08 AM 39.0661 -77.4283 220° Southwest 358 412 34,000  Level Washington Center
Mon 07:17:06 AM 38.9878 -77.5064 218° Southwest 358 412 34,000  Level Washington Center
Mon 07:18:06 AM 38.9008 -77.5975 219° Southwest 369 425 34,000  Level Washington Center
Mon 07:19:07 AM 38.8392 -77.6650 220° Southwest 369 425 34,000  Level Washington Center
Mon 07:20:07 AM 38.7394 -77.7633 218° Southwest 380 437 34,000  Level Washington Center
Mon 07:21:07 AM 38.6631 -77.8436 219° Southwest 380 437 34,000  Level Washington Center
Mon 07:22:07 AM 38.5986 -77.9400 229° Southwest 368 423 34,000  Level Washington Center
Mon 07:23:08 AM 38.5425 -78.0311 232° Southwest 368 423 34,000  Level Washington Center
Mon 07:24:06 AM 38.4842 -78.1353 234° Southwest 368 423 34,000  Level Washington Center
Mon 07:25:07 AM 38.4236 -78.2367 233° Southwest 368 423 34,000  Level Washington Center
Mon 07:26:06 AM 38.3628 -78.3403 233° Southwest 368 423 34,000  Level Washington Center
Mon 07:27:06 AM 38.3022 -78.4414 233° Southwest 373 429 34,000  Level Washington Center
Mon 07:28:07 AM 38.2389 -78.5553 235° Southwest 373 429 34,000  Level Washington Center
Mon 07:29:08 AM 38.1781 -78.6558 232° Southwest 367 422 34,000  Level Washington Center
Mon 07:30:08 AM 38.1233 -78.7486 233° Southwest 362 417 34,000  Level Washington Center
Mon 07:31:08 AM 38.0625 -78.8464 232° Southwest 362 417 34,000  Level Washington Center
Mon 07:32:20 AM 37.9903 -78.9669 233° Southwest 362 417 34,000  Level Washington Center
Mon 07:33:18 AM 37.9244 -79.0772 233° Southwest 362 417 34,000  Level Washington Center
Mon 07:34:19 AM 37.8692 -79.1825 236° Southwest 362 417 34,000  Level Washington Center
Mon 07:35:20 AM 37.8139 -79.2903 237° Southwest 362 417 34,000  Level Washington Center
Mon 07:36:17 AM 37.7625 -79.3981 239° Southwest 362 417 34,000  Level Washington Center
Mon 07:37:18 AM 37.7094 -79.4953 235° Southwest 367 422 34,000  Level Washington Center
Mon 07:38:19 AM 37.6489 -79.6156 238° Southwest 372 428 34,000  Level Washington Center
Mon 07:39:20 AM 37.6019 -79.7125 239° Southwest 377 434 34,000  Level Washington Center
Mon 07:40:18 AM 37.5414 -79.8297 237° Southwest 377 434 34,000  Level Washington Center
Mon 07:41:19 AM 37.4853 -79.9444 238° Southwest 382 440 34,000  Level Washington Center
Mon 07:42:20 AM 37.4358 -80.0383 236° Southwest 371 427 34,000  Level Washington Center
Mon 07:43:24 AM 37.3653 -80.1719 236° Southwest 374 430 34,000  Level Atlanta Center
Mon 07:44:24 AM 37.3122 -80.2761 237° Southwest 374 430 34,000  Level Atlanta Center
Mon 07:45:24 AM 37.2608 -80.3725 236° Southwest 374 430 34,000  Level Atlanta Center
Mon 07:46:24 AM 37.2058 -80.4819 238° Southwest 374 430 34,000  Level Atlanta Center
Mon 07:47:24 AM 37.1503 -80.5886 237° Southwest 379 436 34,000  Level Atlanta Center
Mon 07:48:24 AM 37.0869 -80.7083 236° Southwest 379 436 34,000  Level Atlanta Center
Mon 07:49:24 AM 37.0464 -80.8244 246° West 374 430 34,000  Level Atlanta Center
Mon 07:50:24 AM 37.0036 -80.9433 246° West 374 430 34,000  Level Atlanta Center
Mon 07:51:24 AM 36.9586 -81.0619 245° Southwest 374 430 34,000  Level Atlanta Center
Mon 07:52:24 AM 36.9236 -81.1672 247° West 380 437 34,000  Level Atlanta Center
Mon 07:53:24 AM 36.8783 -81.2881 245° Southwest 380 437 34,000  Level Atlanta Center
Mon 07:54:24 AM 36.8308 -81.4014 242° Southwest 380 437 34,000  Level Atlanta Center
Mon 07:55:24 AM 36.7958 -81.5217 250° West 380 437 34,000  Level Atlanta Center
Mon 07:56:24 AM 36.7506 -81.6553 247° West 380 437 34,000  Level Atlanta Center
Mon 07:57:24 AM 36.7128 -81.7600 246° West 380 437 34,000  Level Atlanta Center
Mon 07:58:24 AM 36.6692 -81.8778 245° Southwest 380 437 34,000  Level Atlanta Center
Mon 07:59:24 AM 36.6253 -81.9953 245° Southwest 380 437 34,000  Level Atlanta Center
Mon 08:00:24 AM 36.5811 -82.1128 245° Southwest 380 437 34,000  Level Atlanta Center
Mon 08:01:24 AM 36.5372 -82.2325 246° West 380 437 34,000  Level Atlanta Center
Mon 08:02:24 AM 36.4931 -82.3472 244° Southwest 380 437 34,000  Level Atlanta Center
Mon 08:03:24 AM 36.4486 -82.4669 245° Southwest 380 437 34,000  Level Atlanta Center
Mon 08:04:24 AM 36.4042 -82.5839 245° Southwest 375 432 34,000  Level Atlanta Center
Mon 08:05:24 AM 36.3597 -82.7008 245° Southwest 375 432 34,000  Level Atlanta Center
Mon 08:06:24 AM 36.3131 -82.8278 246° West 380 437 34,000  Level Atlanta Center
Mon 08:07:24 AM 36.2681 -82.9417 244° Southwest 380 437 34,000  Level Atlanta Center
Mon 08:08:24 AM 36.2044 -83.0431 232° Southwest 375 432 34,000  Level Atlanta Center
Mon 08:09:24 AM 36.1425 -83.1414 232° Southwest 375 432 34,000  Level Atlanta Center
Mon 08:10:24 AM 36.0808 -83.2422 233° Southwest 375 432 34,000  Level Atlanta Center
Mon 08:11:24 AM 36.0167 -83.3431 232° Southwest 375 432 34,000  Level Atlanta Center
Mon 08:12:24 AM 35.9547 -83.4411 232° Southwest 375 432 34,000  Level Atlanta Center
Mon 08:13:24 AM 35.8925 -83.5389 232° Southwest 375 432 34,000  Level Atlanta Center
Mon 08:14:24 AM 35.8303 -83.6417 233° Southwest 375 432 34,000  Level Atlanta Center
Mon 08:15:24 AM 35.7658 -83.7419 232° Southwest 375 432 34,000  Level Atlanta Center
Mon 08:16:24 AM 35.7036 -83.8392 232° Southwest 375 432 34,000  Level Atlanta Center
Mon 08:17:24 AM 35.6389 -83.9392 231° Southwest 375 432 34,000  Level Atlanta Center
Mon 08:18:24 AM 35.5744 -84.0414 232° Southwest 375 432 34,000  Level Atlanta Center
Mon 08:19:24 AM 35.5097 -84.1408 231° Southwest 375 432 34,000  Level Atlanta Center
Mon 08:20:24 AM 35.4469 -84.2403 232° Southwest 375 432 34,000  Level Atlanta Center
Mon 08:21:24 AM 35.3819 -84.3419 232° Southwest 380 437 34,000  Level Atlanta Center
Mon 08:22:24 AM 35.3169 -84.4408 231° Southwest 380 437 34,000  Level Atlanta Center
Mon 08:23:24 AM 35.2519 -84.5422 232° Southwest 375 432 34,000  Level Atlanta Center
Mon 08:24:24 AM 35.1847 -84.6461 232° Southwest 375 432 34,000  Level Atlanta Center
Mon 08:25:24 AM 35.1281 -84.7319 231° Southwest 375 432 34,000  Level Atlanta Center
Mon 08:26:24 AM 35.0606 -84.8356 232° Southwest 375 432 34,000  Level Atlanta Center
Mon 08:27:24 AM 34.9953 -84.9339 231° Southwest 375 432 34,000  Level Atlanta Center
Mon 08:28:24 AM 34.9297 -85.0369 232° Southwest 375 432 34,000  Level Atlanta Center
Mon 08:29:24 AM 34.8664 -85.1350 232° Southwest 375 432 34,000  Level Atlanta Center
Mon 08:30:24 AM 34.7986 -85.2378 231° Southwest 375 432 34,000  Level Atlanta Center
Mon 08:31:24 AM 34.7308 -85.3378 231° Southwest 381 438 34,000  Level Atlanta Center
Mon 08:32:24 AM 34.6650 -85.4378 231° Southwest 386 444 34,000  Level Atlanta Center
Mon 08:33:24 AM 34.5969 -85.5403 231° Southwest 386 444 34,000  Level Atlanta Center
Mon 08:34:24 AM 34.5311 -85.6400 231° Southwest 392 451 34,000  Level Atlanta Center
Mon 08:35:24 AM 34.4631 -85.7394 230° Southwest 387 445 34,000  Level Atlanta Center
Mon 08:36:24 AM 34.3925 -85.8436 231° Southwest 387 445 34,000  Level Atlanta Center
Mon 08:37:24 AM 34.3222 -85.9428 229° Southwest 387 445 34,000  Level Atlanta Center
Mon 08:38:24 AM 34.2558 -86.0419 231° Southwest 387 445 34,000  Level Atlanta Center
Mon 08:39:24 AM 34.1875 -86.1431 231° Southwest 387 445 34,000  Level Atlanta Center
Mon 08:40:24 AM 34.1189 -86.2444 231° Southwest 387 445 34,000  Level Atlanta Center
Mon 08:41:24 AM 34.0503 -86.3453 231° Southwest 392 451 34,000  Level Atlanta Center
Mon 08:42:24 AM 33.9794 -86.4461 230° Southwest 392 451 34,000  Level Atlanta Center
Mon 08:43:24 AM 33.9086 -86.5467 230° Southwest 392 451 34,000  Level Atlanta Center
Mon 08:44:24 AM 33.8417 -86.6475 231° Southwest 392 451 34,000  Level Atlanta Center
Mon 08:45:24 AM 33.7728 -86.7503 231° Southwest 392 451 34,000  Level Atlanta Center
Mon 08:46:24 AM 33.7017 -86.8503 229° Southwest 397 457 34,000  Level Atlanta Center
Mon 08:47:24 AM 33.6447 -86.9608 238° Southwest 392 451 34,000  Level Atlanta Center
Mon 08:48:24 AM 33.5961 -87.0764 243° Southwest 392 451 34,000  Level Atlanta Center
Mon 08:49:24 AM 33.5558 -87.1822 245° Southwest 387 445 34,000  Level Atlanta Center
Mon 08:51:24 AM 33.4536 -87.4367 244° Southwest 391 450 34,000  Level Memphis Center
Mon 08:52:24 AM 33.4103 -87.5403 243° Southwest 391 450 34,000  Level Memphis Center
Mon 08:53:24 AM 33.3542 -87.6539 239° Southwest 391 450 34,000  Level Memphis Center
Mon 08:54:24 AM 33.2897 -87.7578 233° Southwest 401 461 34,000  Level Memphis Center
Mon 08:55:24 AM 33.2250 -87.8664 235° Southwest 406 467 34,000  Level Memphis Center
Mon 08:56:24 AM 33.1772 -87.9844 244° Southwest 406 467 34,000  Level Memphis Center
Mon 08:57:24 AM 33.1294 -88.1047 245° Southwest 401 461 34,000  Level Memphis Center
Mon 08:58:24 AM 33.0817 -88.2300 246° West 389 448 34,000  Level Memphis Center
Mon 08:59:24 AM 33.0356 -88.3475 245° Southwest 384 442 34,000  Level Memphis Center
Mon 09:00:24 AM 32.9894 -88.4675 245° Southwest 389 448 34,000  Level Memphis Center
Mon 09:01:24 AM 32.9389 -88.5825 242° Southwest 389 448 34,000  Level Memphis Center
Mon 09:02:24 AM 32.8925 -88.6997 245° Southwest 389 448 34,000  Level Memphis Center
Mon 09:03:24 AM 32.8461 -88.8167 245° Southwest 389 448 34,000  Level Memphis Center
Mon 09:04:24 AM 32.7953 -88.9364 243° Southwest 389 448 34,000  Level Memphis Center
Mon 09:05:24 AM 32.7486 -89.0531 245° Southwest 389 448 34,000  Level Memphis Center
Mon 09:06:24 AM 32.6997 -89.1697 244° Southwest 389 448 34,000  Level Memphis Center
Mon 09:07:24 AM 32.6506 -89.2864 243° Southwest 394 453 34,000  Level Memphis Center
Mon 09:08:24 AM 32.6014 -89.4056 244° Southwest 394 453 34,000  Level Memphis Center
Mon 09:09:24 AM 32.5522 -89.5217 243° Southwest 394 453 34,000  Level Memphis Center
Mon 09:10:24 AM 32.5028 -89.6381 243° Southwest 394 453 34,000  Level Memphis Center
Mon 09:11:24 AM 32.4533 -89.7567 244° Southwest 399 459 34,000  Level Memphis Center
Mon 09:12:24 AM 32.4039 -89.8750 244° Southwest 404 465 34,000  Level Memphis Center
Mon 09:13:24 AM 32.3561 -89.9933 244° Southwest 404 465 34,000  Level Memphis Center
Mon 09:14:24 AM 32.3042 -90.1092 242° Southwest 404 465 34,000  Level Memphis Center
Mon 09:15:24 AM 32.2544 -90.2297 244° Southwest 404 465 34,000  Level Memphis Center
Mon 09:16:24 AM 32.2042 -90.3450 243° Southwest 404 465 34,000  Level Memphis Center
Mon 09:18:40 AM 32.0997 -90.6144 245° Southwest 407 468 34,000  Level Houston Center
Mon 09:19:42 AM 32.0531 -90.7339 245° Southwest 404 465 34,000  Level Houston Center
Mon 09:20:43 AM 32.0056 -90.8564 245° Southwest 409 471 34,000  Level Houston Center
Mon 09:21:45 AM 31.9583 -90.9769 245° Southwest 409 471 34,000  Level Houston Center
Mon 09:22:47 AM 31.9100 -91.0981 245° Southwest 410 472 34,000  Level Houston Center
Mon 09:23:49 AM 31.8633 -91.2181 245° Southwest 407 468 34,000  Level Houston Center
Mon 09:24:50 AM 31.8053 -91.3628 245° Southwest 409 471 34,000  Level Houston Center
Mon 09:25:52 AM 31.7586 -91.4814 245° Southwest 403 464 34,000  Level Houston Center
Mon 09:26:54 AM 31.7103 -91.6017 245° Southwest 408 470 34,000  Level Houston Center
Mon 09:27:56 AM 31.6567 -91.7347 245° Southwest 410 472 34,000  Level Houston Center
Mon 09:28:58 AM 31.6083 -91.8553 245° Southwest 408 470 34,000  Level Houston Center
Mon 09:29:59 AM 31.5594 -91.9753 244° Southwest 411 473 34,000  Level Houston Center
Mon 09:31:01 AM 31.5106 -92.0969 245° Southwest 413 475 34,000  Level Houston Center
Mon 09:32:03 AM 31.4608 -92.2181 244° Southwest 414 476 34,000  Level Houston Center
Mon 09:33:04 AM 31.4114 -92.3394 245° Southwest 414 476 34,000  Level Houston Center
Mon 09:34:06 AM 31.3619 -92.4619 245° Southwest 417 480 34,000  Level Houston Center
Mon 09:35:08 AM 31.3008 -92.6075 244° Southwest 417 480 34,000  Level Houston Center
Mon 09:36:10 AM 31.2489 -92.7275 243° Southwest 416 479 34,000  Level Houston Center
Mon 09:37:11 AM 31.1997 -92.8522 245° Southwest 421 484 34,000  Level Houston Center
Mon 09:38:13 AM 31.1839 -92.9842 262° West 444 511 34,000  Level Houston Center
Mon 09:39:15 AM 31.1969 -93.1228 276° West 436 502 34,000  Level Houston Center
Mon 09:40:17 AM 31.2089 -93.2611 276° West 432 497 34,000  Level Houston Center
Mon 09:41:19 AM 31.2225 -93.4281 275° West 434 499 34,000 -49 Level Houston Center
Mon 09:42:20 AM 31.1728 -93.5472 244° Southwest 425 489 33,900  Descending Houston Center
Mon 09:43:22 AM 31.0994 -93.6550 232° Southwest 424 488 34,000 48 Climbing Houston Center
Mon 09:44:24 AM 31.0256 -93.7600 231° Southwest 424 488 34,000  Level Houston Center
Mon 09:45:26 AM 30.9525 -93.8672 232° Southwest 424 488 34,000 -97 Level Houston Center
Mon 09:46:28 AM 30.8631 -93.9953 231° Southwest 426 490 33,800 -1,694 Descending Houston Center
Mon 09:47:30 AM 30.7864 -94.1053 231° Southwest 438 504 30,500 -3,339 Descending Houston Center
Mon 09:48:32 AM 30.7050 -94.2192 230° Southwest 455 524 26,900 -3,326 Descending Houston Center
Mon 09:49:02 AM 30.6611 -94.2842 232° Southwest 458 527 25,400 -2,032 Descending Houston Center
Mon 09:49:34 AM 30.6275 -94.3322 231° Southwest 453 521 24,800 -2,400 Descending Houston Center
Mon 09:50:22 AM 30.5594 -94.4261 230° Southwest 409 471 22,200 -3,130 Descending Houston Center
Mon 09:51:29 AM 30.4819 -94.5358 231° Southwest 405 466 18,800 -2,766 Descending Houston Center
Mon 09:52:30 AM 30.4128 -94.6442 234° Southwest 398 458 16,300 -2,164 Descending Houston Center
Mon 09:53:31 AM 30.3506 -94.7419 234° Southwest 363 418 14,400 -1,902 Descending Houston Center
Mon 09:54:33 AM 30.2900 -94.8342 233° Southwest 362 417 12,400 -1,463 Descending Houston Center
Mon 09:55:34 AM 30.2294 -94.9267 233° Southwest 338 389 11,400 -724 Descending Houston Center
Mon 09:56:29 AM 30.1783 -95.0081 234° Southwest 340 391 11,000 -621 Descending Houston Center
Mon 09:57:30 AM 30.1117 -95.0814 224° Southwest 343 395 10,200 -492 Descending Houston Center
Mon 09:58:31 AM 30.0208 -95.1192 200° South 325 374 10,000 -541 Descending Houston Center
Mon 09:59:32 AM 29.9442 -95.1528 201° Southwest 283 326 9,100 -829 Descending Houston Center
Mon 10:00:34 AM 29.8733 -95.1831 200° South 252 290 8,300 -872 Descending Houston Center
Mon 10:01:29 AM 29.8150 -95.2094 201° Southwest 247 284 7,400 -672 Descending Houston Center
Mon 10:02:30 AM 29.7478 -95.2322 196° South 250 288 7,000 -261 Descending Houston Center
Mon 10:03:01 AM 29.7208 -95.2342 184° South 247 284 7,000 -590 Level Houston Center
Mon 10:03:31 AM 29.6789 -95.2358 182° South 242 278 6,400 -968 Descending Houston Center
Mon 10:04:03 AM 29.6536 -95.2367 182° South 246 283 6,000 -358 Descending Houston Center
Mon 10:04:38 AM 29.6033 -95.2378 181° South 243 280 6,000 -198 Level Houston Center
Mon 10:05:34 AM 29.5464 -95.2589 198° South 244 281 5,700 -809 Descending Houston Center
Mon 10:06:07 AM 29.5267 -95.2892 233° Southwest 245 282 4,800 -1,516 Descending Houston Center
Mon 10:07:09 AM 29.5275 -95.3517 271° West 236 272 3,300 -1,500 Descending Houston Center
Mon 10:08:11 AM 29.5750 -95.3558 356° North 191 220 1,700 -1,161 Descending Houston Center
Mon 10:09:13 AM 29.6067 -95.3219 43° Northeast 160 184 900 -726 Descending Houston Center
Mon 10:10:15 AM 29.6342 -95.2914 44° Northeast 145 167 200 -677 Descending Houston Center

Login

Don't have an account? Register now (free) for customized features, flight alerts, and more!